createdAt,value
2022-07-29T00:00:02.265Z,3.50
2022-07-29T00:02:49.142Z,2.80
2022-07-29T00:05:16.262Z,3.47
2022-07-29T00:07:43.131Z,3.65
2022-07-29T00:10:10.013Z,3.58
2022-07-29T00:12:37.200Z,3.88
2022-07-29T00:15:04.978Z,3.38
2022-07-29T00:17:32.218Z,3.05
2022-07-29T00:19:59.269Z,3.00
2022-07-29T00:22:26.119Z,3.08
2022-07-29T00:24:52.887Z,3.00
2022-07-29T00:27:19.899Z,3.40
2022-07-29T00:29:46.742Z,3.20
2022-07-29T00:32:13.605Z,3.20
2022-07-29T00:34:59.216Z,3.30
2022-07-29T00:37:26.110Z,2.88
2022-07-29T00:39:53.071Z,3.25
2022-07-29T00:42:19.871Z,3.55
2022-07-29T00:44:46.649Z,3.13
2022-07-29T00:47:14.114Z,3.15
2022-07-29T00:49:42.787Z,3.20
2022-07-29T00:52:11.123Z,3.67
2022-07-29T00:54:44.246Z,3.63
2022-07-29T00:57:13.143Z,3.40
2022-07-29T00:59:40.441Z,4.25
2022-07-29T01:02:07.273Z,3.50
2022-07-29T01:04:34.507Z,3.47
2022-07-29T01:07:05.473Z,3.20
2022-07-29T01:09:43.076Z,3.00
2022-07-29T01:12:17.258Z,4.00
2022-07-29T01:14:44.581Z,3.35
2022-07-29T01:17:21.024Z,3.47
2022-07-29T01:20:07.191Z,3.65
2022-07-29T01:23:08.265Z,3.58
2022-07-29T01:26:09.340Z,2.92
2022-07-29T01:28:44.509Z,3.03
2022-07-29T01:31:24.359Z,3.70
2022-07-29T01:34:06.402Z,3.45
2022-07-29T01:36:47.989Z,3.45
2022-07-29T01:39:22.312Z,3.83
2022-07-29T01:41:59.153Z,3.90
2022-07-29T01:44:33.967Z,3.95
2022-07-29T01:47:06.091Z,3.95
2022-07-29T01:49:37.748Z,3.65
2022-07-29T01:52:08.605Z,3.75
2022-07-29T01:54:46.689Z,4.05
2022-07-29T01:57:18.416Z,3.42
2022-07-29T01:59:47.497Z,3.58
2022-07-29T02:02:17.647Z,3.38
2022-07-29T02:04:49.354Z,3.67
2022-07-29T02:07:20.437Z,3.40
2022-07-29T02:09:50.363Z,3.47
2022-07-29T02:12:20.372Z,3.47
2022-07-29T02:14:51.612Z,3.47
2022-07-29T02:17:25.924Z,3.90
2022-07-29T02:19:58.159Z,3.65
2022-07-29T02:22:27.026Z,3.60
2022-07-29T02:24:54.581Z,3.08
2022-07-29T02:27:21.726Z,3.80
2022-07-29T02:29:51.160Z,3.85
2022-07-29T02:32:19.010Z,3.78
2022-07-29T02:34:47.364Z,4.00
2022-07-29T02:37:16.981Z,3.75
2022-07-29T02:39:45.742Z,3.75
2022-07-29T02:42:15.877Z,4.00
2022-07-29T02:44:43.303Z,3.63
2022-07-29T02:47:22.152Z,4.10
2022-07-29T02:50:03.488Z,3.65
2022-07-29T02:52:36.375Z,3.53
2022-07-29T02:55:09.602Z,3.95
2022-07-29T02:57:54.457Z,3.42
2022-07-29T03:00:26.970Z,4.63
2022-07-29T03:02:57.258Z,4.38
2022-07-29T03:05:25.009Z,3.90
2022-07-29T03:08:02.042Z,4.05
2022-07-29T03:10:29.446Z,3.78
2022-07-29T03:12:57.471Z,4.18
2022-07-29T03:15:27.078Z,4.40
2022-07-29T03:17:54.745Z,4.88
2022-07-29T03:20:21.934Z,5.75
2022-07-29T03:22:48.810Z,4.82
2022-07-29T03:25:18.579Z,4.78
2022-07-29T03:27:45.965Z,6.35
2022-07-29T03:30:18.282Z,4.70
2022-07-29T03:32:49.778Z,3.78
2022-07-29T03:35:23.581Z,4.88
2022-07-29T03:37:50.575Z,4.65
2022-07-29T03:40:28.790Z,4.50
2022-07-29T03:42:57.180Z,5.07
2022-07-29T03:45:26.341Z,4.05
2022-07-29T03:48:00.991Z,4.88
2022-07-29T03:50:31.658Z,3.90
2022-07-29T03:52:59.272Z,4.57
2022-07-29T03:55:29.228Z,4.95
2022-07-29T03:57:58.016Z,4.32
2022-07-29T04:00:26.566Z,5.00
2022-07-29T04:02:53.440Z,4.03
2022-07-29T04:05:20.547Z,3.72
2022-07-29T04:07:49.337Z,4.00
2022-07-29T04:10:17.900Z,4.10
2022-07-29T04:12:57.352Z,3.90
2022-07-29T04:15:24.175Z,4.50
2022-07-29T04:17:51.117Z,3.92
2022-07-29T04:20:18.346Z,4.25
2022-07-29T04:22:45.140Z,4.05
2022-07-29T04:25:11.949Z,4.63
2022-07-29T04:27:58.855Z,3.80
2022-07-29T04:30:25.818Z,4.07
2022-07-29T04:32:53.062Z,4.50
2022-07-29T04:35:20.931Z,4.47
2022-07-29T04:37:48.115Z,3.65
2022-07-29T04:40:15.200Z,4.18
2022-07-29T04:42:46.725Z,4.05
2022-07-29T04:45:15.352Z,4.00
2022-07-29T04:47:43.222Z,4.28
2022-07-29T04:50:10.723Z,4.32
2022-07-29T04:52:38.059Z,4.13
2022-07-29T04:55:06.265Z,4.13
2022-07-29T04:57:33.365Z,4.30
2022-07-29T05:00:00.153Z,4.30
2022-07-29T05:02:27.228Z,4.50
2022-07-29T05:04:54.140Z,4.03
2022-07-29T05:07:20.889Z,3.90
2022-07-29T05:09:48.557Z,3.95
2022-07-29T05:12:15.323Z,4.05
2022-07-29T05:14:42.110Z,3.75
2022-07-29T05:17:09.068Z,4.30
2022-07-29T05:19:39.503Z,3.78
2022-07-29T05:22:07.205Z,3.78
2022-07-29T05:24:34.189Z,4.15
2022-07-29T05:27:00.985Z,3.85
2022-07-29T05:29:43.376Z,4.03
2022-07-29T05:32:12.822Z,4.07
2022-07-29T05:34:51.000Z,4.07
2022-07-29T05:37:21.908Z,4.32
2022-07-29T05:39:56.815Z,3.92
2022-07-29T05:42:27.295Z,4.35
2022-07-29T05:44:55.036Z,4.30
2022-07-29T05:47:21.892Z,4.35
2022-07-29T05:49:49.426Z,4.57
2022-07-29T05:52:16.232Z,4.40
2022-07-29T05:54:43.184Z,4.15
2022-07-29T05:57:17.113Z,3.88
2022-07-29T05:59:43.851Z,4.72
2022-07-29T06:02:10.629Z,4.53
2022-07-29T06:04:37.622Z,3.88
2022-07-29T06:07:05.437Z,4.20
2022-07-29T06:09:36.003Z,4.28
2022-07-29T06:12:04.178Z,4.22
2022-07-29T06:14:31.031Z,4.25
2022-07-29T06:16:57.774Z,6.03
2022-07-29T06:19:24.740Z,4.15
2022-07-29T06:21:51.988Z,4.07
2022-07-29T06:24:19.237Z,4.30
2022-07-29T06:26:46.496Z,4.60
2022-07-29T06:29:13.352Z,3.72
2022-07-29T06:31:40.455Z,5.22
2022-07-29T06:34:07.771Z,4.35
2022-07-29T06:36:38.313Z,4.25
2022-07-29T06:39:11.618Z,3.92
2022-07-29T06:41:39.225Z,4.00
2022-07-29T06:44:06.001Z,3.85
2022-07-29T06:46:33.685Z,4.22
2022-07-29T06:49:02.541Z,4.35
2022-07-29T06:51:29.934Z,4.45
2022-07-29T06:54:02.325Z,3.97
2022-07-29T06:56:32.541Z,4.28
2022-07-29T06:59:06.233Z,4.57
2022-07-29T07:01:33.283Z,4.63
2022-07-29T07:04:00.131Z,4.45
2022-07-29T07:06:27.090Z,4.63
2022-07-29T07:08:54.686Z,4.10
2022-07-29T07:11:21.710Z,4.53
2022-07-29T07:13:48.459Z,4.30
2022-07-29T07:16:15.499Z,4.10
2022-07-29T07:18:42.331Z,4.53
2022-07-29T07:21:11.961Z,4.20
2022-07-29T07:23:45.927Z,4.25
2022-07-29T07:26:12.742Z,3.80
2022-07-29T07:28:39.493Z,4.90
2022-07-29T07:31:06.524Z,4.22
2022-07-29T07:33:33.318Z,4.40
2022-07-29T07:36:00.318Z,4.43
2022-07-29T07:38:27.380Z,5.30
2022-07-29T07:40:54.145Z,5.22
2022-07-29T07:43:20.919Z,5.05
2022-07-29T07:45:47.946Z,7.80
2022-07-29T07:48:14.797Z,5.03
2022-07-29T07:50:41.585Z,5.00
2022-07-29T07:53:08.637Z,4.97
2022-07-29T07:56:08.868Z,4.75
2022-07-29T07:58:28.146Z,4.50
2022-07-29T08:00:54.956Z,4.95
2022-07-29T08:03:22.171Z,6.63
2022-07-29T08:05:51.581Z,5.20
2022-07-29T08:08:18.830Z,5.13
2022-07-29T08:10:54.237Z,5.72
2022-07-29T08:13:22.552Z,4.82
2022-07-29T08:15:58.471Z,5.28
2022-07-29T08:18:27.165Z,7.07
2022-07-29T08:20:54.175Z,5.20
2022-07-29T08:23:21.527Z,4.03
2022-07-29T08:25:50.244Z,6.15
2022-07-29T08:28:18.369Z,5.32
2022-07-29T08:30:45.414Z,4.60
2022-07-29T08:33:12.339Z,4.93
2022-07-29T08:35:40.414Z,5.57
2022-07-29T08:38:07.279Z,5.35
2022-07-29T08:40:34.334Z,5.03
2022-07-29T08:43:10.396Z,4.15
2022-07-29T08:45:48.023Z,3.97
2022-07-29T08:48:17.104Z,4.43
2022-07-29T08:50:46.319Z,4.43
2022-07-29T08:53:15.964Z,4.32
2022-07-29T08:55:44.727Z,4.20
2022-07-29T08:58:15.777Z,3.90
2022-07-29T09:00:46.188Z,4.05
2022-07-29T09:03:20.434Z,4.18
2022-07-29T09:05:48.419Z,4.68
2022-07-29T09:08:17.057Z,3.85
2022-07-29T09:10:44.732Z,4.78
2022-07-29T09:13:11.500Z,4.50
2022-07-29T09:15:38.500Z,4.28
2022-07-29T09:18:05.282Z,4.47
2022-07-29T09:20:50.563Z,4.30
2022-07-29T09:23:23.244Z,4.60
2022-07-29T09:25:51.534Z,4.22
2022-07-29T09:28:19.045Z,4.30
2022-07-29T09:30:53.685Z,3.72
2022-07-29T09:33:22.114Z,3.55
2022-07-29T09:36:01.923Z,2.95
2022-07-29T09:38:29.894Z,3.85
2022-07-29T09:41:06.394Z,4.07
2022-07-29T09:43:34.949Z,3.55
2022-07-29T09:46:15.061Z,3.17
2022-07-29T09:48:42.265Z,3.42
2022-07-29T09:51:27.060Z,2.92
2022-07-29T09:54:26.768Z,3.10
2022-07-29T09:56:54.767Z,2.95
2022-07-29T09:59:25.291Z,3.17
2022-07-29T10:01:52.431Z,3.40
2022-07-29T10:04:20.213Z,2.90
2022-07-29T10:07:03.777Z,2.92
2022-07-29T10:09:31.653Z,2.88
2022-07-29T10:12:10.025Z,3.72
2022-07-29T10:14:37.716Z,3.03
2022-07-29T10:17:06.933Z,3.53
2022-07-29T10:19:36.118Z,3.00
2022-07-29T10:22:06.126Z,2.70
2022-07-29T10:24:33.911Z,2.90
2022-07-29T10:27:03.432Z,2.58
2022-07-29T10:29:32.356Z,3.33
2022-07-29T10:32:05.665Z,2.80
2022-07-29T10:35:02.561Z,3.00
2022-07-29T10:37:47.938Z,2.75
2022-07-29T10:40:45.613Z,3.35
2022-07-29T10:43:33.772Z,3.47
2022-07-29T10:46:02.152Z,3.42
2022-07-29T10:48:30.089Z,3.72
2022-07-29T10:51:04.976Z,4.22
2022-07-29T10:53:54.098Z,3.70
2022-07-29T10:56:38.921Z,3.15
2022-07-29T10:59:21.732Z,3.05
2022-07-29T11:02:06.244Z,2.58
2022-07-29T11:04:44.464Z,2.95
2022-07-29T11:07:12.228Z,2.90
2022-07-29T11:09:39.868Z,3.03
2022-07-29T11:12:37.717Z,2.90
2022-07-29T11:15:09.663Z,2.97
2022-07-29T11:17:54.804Z,2.88
2022-07-29T11:20:37.896Z,2.70
2022-07-29T11:23:36.557Z,2.70
2022-07-29T11:26:10.844Z,2.80
2022-07-29T11:29:04.264Z,2.80
2022-07-29T11:31:37.726Z,2.45
2022-07-29T11:34:30.272Z,2.78
2022-07-29T11:37:12.588Z,2.50
2022-07-29T11:40:08.402Z,3.13
2022-07-29T11:42:41.747Z,2.50
2022-07-29T11:45:42.593Z,2.47
2022-07-29T11:48:27.585Z,2.40
2022-07-29T11:50:48.384Z,2.70
2022-07-29T11:53:16.131Z,2.30
2022-07-29T11:55:50.975Z,2.65
2022-07-29T11:58:26.219Z,3.08
2022-07-29T12:00:55.330Z,2.65
2022-07-29T12:06:18.038Z,2.92
2022-07-29T12:08:45.962Z,2.63
2022-07-29T12:11:22.658Z,3.13
2022-07-29T12:13:51.969Z,2.67
2022-07-29T12:16:26.020Z,2.80
2022-07-29T12:19:02.015Z,2.63
2022-07-29T12:21:56.488Z,3.45
2022-07-29T12:24:26.865Z,2.72
2022-07-29T12:27:01.123Z,2.60
2022-07-29T12:29:33.750Z,2.75
2022-07-29T12:32:03.287Z,2.55
2022-07-29T12:34:30.945Z,2.70
2022-07-29T12:36:57.956Z,2.25
2022-07-29T12:39:27.488Z,2.63
2022-07-29T12:42:04.709Z,2.40
2022-07-29T12:44:49.363Z,2.30
2022-07-29T12:47:17.313Z,2.50
2022-07-29T12:49:44.091Z,2.30
2022-07-29T12:52:28.894Z,2.40
2022-07-29T12:54:56.286Z,2.50
2022-07-29T12:57:23.332Z,2.50
2022-07-29T13:00:14.224Z,2.65
2022-07-29T13:02:42.651Z,2.80
2022-07-29T13:05:11.304Z,2.33
2022-07-29T13:07:53.944Z,2.80
2022-07-29T13:10:24.379Z,2.58
2022-07-29T13:13:15.935Z,2.20
2022-07-29T13:15:45.099Z,2.97
2022-07-29T13:18:31.673Z,2.08
2022-07-29T13:21:12.002Z,2.47
2022-07-29T13:23:39.117Z,2.10
2022-07-29T13:26:10.472Z,3.17
2022-07-29T13:28:37.325Z,2.40
2022-07-29T13:31:05.627Z,2.42
2022-07-29T13:33:32.747Z,2.35
2022-07-29T13:35:59.524Z,2.40
2022-07-29T13:38:30.896Z,3.10
2022-07-29T13:40:58.818Z,2.47
2022-07-29T13:43:25.600Z,3.13
2022-07-29T13:45:53.085Z,2.83
2022-07-29T13:48:20.165Z,2.90
2022-07-29T13:50:47.657Z,2.70
2022-07-29T13:53:17.943Z,2.30
2022-07-29T13:55:45.979Z,2.90
2022-07-29T13:58:12.772Z,2.90
2022-07-29T14:00:39.554Z,2.88
2022-07-29T14:03:07.427Z,2.53
2022-07-29T14:05:34.299Z,3.22
2022-07-29T14:08:01.067Z,2.53
2022-07-29T14:10:28.152Z,2.95
2022-07-29T14:12:54.897Z,2.53
2022-07-29T14:15:21.868Z,2.60
2022-07-29T14:17:48.836Z,2.65
2022-07-29T14:20:16.636Z,2.30
2022-07-29T14:22:44.915Z,2.35
2022-07-29T14:25:14.423Z,2.30
2022-07-29T14:27:44.304Z,2.70
2022-07-29T14:30:11.750Z,2.55
2022-07-29T14:32:38.771Z,2.83
2022-07-29T14:35:06.823Z,2.40
2022-07-29T14:37:39.940Z,2.47
2022-07-29T14:40:08.998Z,2.95
2022-07-29T14:42:37.094Z,2.70
2022-07-29T14:45:05.766Z,2.95
2022-07-29T14:47:32.771Z,2.92
2022-07-29T14:50:00.736Z,3.00
2022-07-29T14:52:27.467Z,2.60
2022-07-29T14:54:54.588Z,3.10
2022-07-29T14:57:21.339Z,2.60
2022-07-29T14:59:48.144Z,2.33
2022-07-29T15:02:15.166Z,2.25
2022-07-29T15:04:42.008Z,2.80
2022-07-29T15:07:09.404Z,2.90
2022-07-29T15:09:40.276Z,2.85
2022-07-29T15:12:16.593Z,2.35
2022-07-29T15:14:43.606Z,2.65
2022-07-29T15:17:10.521Z,2.90
2022-07-29T15:19:37.350Z,2.35
2022-07-29T15:22:06.425Z,2.92
2022-07-29T15:24:33.455Z,3.67
2022-07-29T15:27:00.194Z,2.63
2022-07-29T15:29:27.140Z,3.00
2022-07-29T15:31:54.126Z,2.55
2022-07-29T15:34:21.740Z,2.78
2022-07-29T15:36:52.405Z,2.70
2022-07-29T15:39:20.952Z,2.90
2022-07-29T15:41:47.746Z,2.90
2022-07-29T15:44:14.739Z,3.00
2022-07-29T15:47:01.017Z,2.42
2022-07-29T15:49:48.308Z,2.88
2022-07-29T15:52:24.760Z,2.63
2022-07-29T15:54:52.499Z,2.40
2022-07-29T15:57:19.377Z,2.58
2022-07-29T15:59:46.111Z,2.67
2022-07-29T16:02:17.762Z,3.03
2022-07-29T16:04:44.722Z,2.65
2022-07-29T16:07:11.625Z,2.63
2022-07-29T16:09:38.660Z,3.10
2022-07-29T16:12:14.604Z,2.70
2022-07-29T16:14:43.400Z,2.67
2022-07-29T16:17:10.208Z,2.90
2022-07-29T16:19:41.680Z,2.83
2022-07-29T16:22:08.641Z,2.78
2022-07-29T16:24:35.408Z,2.78
2022-07-29T16:27:02.344Z,3.03
2022-07-29T16:29:29.433Z,3.05
2022-07-29T16:31:57.061Z,3.13
2022-07-29T16:34:23.897Z,2.78
2022-07-29T16:36:51.061Z,2.95
2022-07-29T16:39:17.810Z,2.78
2022-07-29T16:41:44.692Z,2.80
2022-07-29T16:44:11.677Z,3.00
2022-07-29T16:46:39.024Z,3.22
2022-07-29T16:49:08.380Z,2.90
2022-07-29T16:51:35.423Z,2.97
2022-07-29T16:54:02.157Z,2.90
2022-07-29T16:56:28.890Z,2.55
2022-07-29T16:58:58.046Z,2.80
2022-07-29T17:01:24.853Z,2.95
2022-07-29T17:04:06.641Z,2.92
2022-07-29T17:06:39.873Z,3.17
2022-07-29T17:09:07.934Z,3.13
2022-07-29T17:11:51.560Z,2.58
2022-07-29T17:14:25.231Z,2.83
2022-07-29T17:17:01.299Z,2.75
2022-07-29T17:19:30.604Z,2.80
2022-07-29T17:22:06.338Z,3.13
2022-07-29T17:24:35.955Z,2.58
2022-07-29T17:27:02.981Z,3.38
2022-07-29T17:29:29.717Z,3.83
2022-07-29T17:31:57.730Z,4.13
2022-07-29T17:34:24.753Z,3.30
2022-07-29T17:36:51.551Z,3.10
2022-07-29T17:39:18.403Z,3.92
2022-07-29T17:41:46.860Z,3.22
2022-07-29T17:44:13.660Z,3.00
2022-07-29T17:46:40.688Z,3.22
2022-07-29T17:49:07.774Z,3.00
2022-07-29T17:51:34.666Z,3.63
2022-07-29T17:54:01.463Z,3.53
2022-07-29T17:56:28.440Z,3.13
2022-07-29T17:58:55.298Z,2.65
2022-07-29T18:01:23.699Z,2.50
2022-07-29T18:03:50.730Z,3.80
2022-07-29T18:06:17.517Z,3.05
2022-07-29T18:08:47.497Z,3.47
2022-07-29T18:11:15.447Z,3.10
2022-07-29T18:13:42.412Z,3.40
2022-07-29T18:16:09.476Z,3.72
2022-07-29T18:18:36.611Z,3.42
2022-07-29T18:21:03.981Z,3.67
2022-07-29T18:23:31.330Z,3.75
2022-07-29T18:25:58.441Z,3.92
2022-07-29T18:28:25.214Z,4.07
2022-07-29T18:30:53.067Z,4.10
2022-07-29T18:33:22.057Z,3.95
2022-07-29T18:35:51.595Z,4.30
2022-07-29T18:38:19.278Z,3.95
2022-07-29T18:40:48.726Z,4.35
2022-07-29T18:43:15.640Z,4.30
2022-07-29T18:45:42.777Z,3.83
2022-07-29T18:48:12.868Z,4.53
2022-07-29T18:50:41.323Z,4.10
2022-07-29T18:53:08.610Z,4.03
2022-07-29T18:55:35.588Z,3.45
2022-07-29T18:58:02.346Z,3.63
2022-07-29T19:00:30.502Z,3.22
2022-07-29T19:02:57.597Z,3.42
2022-07-29T19:05:24.802Z,3.42
2022-07-29T19:07:51.732Z,3.97
2022-07-29T19:10:18.819Z,3.53
2022-07-29T19:12:45.694Z,3.40
2022-07-29T19:15:12.554Z,3.38
2022-07-29T19:17:47.952Z,4.05
2022-07-29T19:20:14.769Z,3.53
2022-07-29T19:22:41.807Z,3.40
2022-07-29T19:25:09.918Z,3.30
2022-07-29T19:27:37.091Z,3.25
2022-07-29T19:30:07.007Z,3.50
2022-07-29T19:32:33.959Z,3.60
2022-07-29T19:35:19.372Z,3.17
2022-07-29T19:37:46.346Z,3.58
2022-07-29T19:40:13.460Z,3.33
2022-07-29T19:42:40.236Z,3.33
2022-07-29T19:45:07.671Z,3.53
2022-07-29T19:47:34.644Z,3.60
2022-07-29T19:50:01.912Z,3.78
2022-07-29T19:52:28.968Z,3.28
2022-07-29T19:54:55.855Z,4.55
2022-07-29T19:57:22.729Z,3.40
2022-07-29T19:59:51.213Z,3.70
2022-07-29T20:02:18.084Z,3.85
2022-07-29T20:04:45.177Z,3.22
2022-07-29T20:07:13.091Z,3.35
2022-07-29T20:09:41.323Z,3.22
2022-07-29T20:12:11.674Z,4.07
2022-07-29T20:14:38.768Z,4.50
2022-07-29T20:17:05.684Z,3.72
2022-07-29T20:19:33.307Z,3.33
2022-07-29T20:22:00.776Z,3.47
2022-07-29T20:24:27.643Z,3.85
2022-07-29T20:26:54.509Z,4.00
2022-07-29T20:29:22.100Z,3.50
2022-07-29T20:31:52.948Z,3.63
2022-07-29T20:34:23.722Z,4.05
2022-07-29T20:36:50.556Z,3.97
2022-07-29T20:39:17.348Z,3.72
2022-07-29T20:41:44.495Z,4.10
2022-07-29T20:44:11.290Z,3.65
2022-07-29T20:46:39.359Z,3.53
2022-07-29T20:49:07.426Z,3.95
2022-07-29T20:51:43.586Z,3.75
2022-07-29T20:54:11.750Z,3.10
2022-07-29T20:56:39.304Z,3.65
2022-07-29T20:59:06.046Z,3.65
2022-07-29T21:01:33.176Z,3.53
2022-07-29T21:04:01.344Z,3.63
2022-07-29T21:06:28.196Z,3.45
2022-07-29T21:08:57.883Z,3.70
2022-07-29T21:11:44.495Z,3.40
2022-07-29T21:14:23.191Z,3.33
2022-07-29T21:16:50.315Z,3.70
2022-07-29T21:19:17.392Z,3.53
2022-07-29T21:21:44.136Z,3.63
2022-07-29T21:24:12.222Z,3.70
2022-07-29T21:26:39.381Z,4.32
2022-07-29T21:29:06.152Z,3.67
2022-07-29T21:31:32.939Z,3.55
2022-07-29T21:33:59.885Z,3.80
2022-07-29T21:36:47.905Z,3.92
2022-07-29T21:39:13.580Z,3.47
2022-07-29T21:41:40.324Z,3.80
2022-07-29T21:44:07.068Z,4.15
2022-07-29T21:46:34.039Z,4.35
2022-07-29T21:49:00.870Z,4.18
2022-07-29T21:51:27.653Z,4.30
2022-07-29T21:53:54.631Z,4.43
2022-07-29T21:56:24.521Z,3.78
2022-07-29T21:58:54.379Z,4.47
2022-07-29T22:01:21.455Z,3.92
2022-07-29T22:03:48.248Z,3.55
2022-07-29T22:06:17.300Z,5.05
2022-07-29T22:08:46.051Z,4.15
2022-07-29T22:11:13.292Z,3.83
2022-07-29T22:13:40.179Z,3.83
2022-07-29T22:16:07.506Z,3.60
2022-07-29T22:18:34.232Z,4.45
2022-07-29T22:21:01.039Z,4.13
2022-07-29T22:23:27.952Z,4.13
2022-07-29T22:25:54.717Z,5.15
2022-07-29T22:28:21.510Z,4.32
2022-07-29T22:30:48.575Z,4.47
2022-07-29T22:33:17.455Z,4.32
2022-07-29T22:35:45.307Z,4.22
2022-07-29T22:38:18.801Z,4.78
2022-07-29T22:40:46.899Z,4.43
2022-07-29T22:43:15.597Z,4.28
2022-07-29T22:45:42.630Z,4.10
2022-07-29T22:48:10.529Z,4.47
2022-07-29T22:50:38.272Z,4.45
2022-07-29T22:53:05.217Z,3.92
2022-07-29T22:55:31.955Z,4.07
2022-07-29T22:57:58.703Z,3.70
2022-07-29T23:00:25.812Z,4.28
2022-07-29T23:02:52.603Z,4.20
2022-07-29T23:05:19.591Z,4.20
2022-07-29T23:07:46.538Z,3.60
2022-07-29T23:10:13.291Z,4.32
2022-07-29T23:12:40.047Z,4.25
2022-07-29T23:15:07.817Z,4.35
2022-07-29T23:17:36.344Z,4.25
2022-07-29T23:20:08.899Z,4.15
2022-07-29T23:22:37.122Z,4.03
2022-07-29T23:25:05.010Z,4.25
2022-07-29T23:27:31.937Z,4.50
2022-07-29T23:29:59.149Z,4.75
2022-07-29T23:32:25.876Z,3.90
2022-07-29T23:34:52.621Z,3.88
2022-07-29T23:37:19.877Z,4.93
2022-07-29T23:39:46.679Z,3.72
2022-07-29T23:42:13.573Z,4.25
2022-07-29T23:44:40.527Z,3.97
2022-07-29T23:47:07.266Z,4.28
2022-07-29T23:49:34.468Z,4.07
2022-07-29T23:52:01.408Z,4.97
2022-07-29T23:54:28.173Z,4.05
2022-07-29T23:56:57.568Z,4.30
2022-07-29T23:59:25.221Z,4.40
